sensor_id;sensor_type;location;lat;lon;timestamp;temperature;humidity
52459;DHT22;38372;52.902;6.024;2023-12-04T00:00:05;0.60;99.90
52459;DHT22;38372;52.902;6.024;2023-12-04T00:02:32;0.60;99.90
52459;DHT22;38372;52.902;6.024;2023-12-04T00:04:58;0.60;99.90
52459;DHT22;38372;52.902;6.024;2023-12-04T00:07:23;0.60;99.90
52459;DHT22;38372;52.902;6.024;2023-12-04T00:09:49;0.60;99.90
52459;DHT22;38372;52.902;6.024;2023-12-04T00:12:15;0.60;99.90
52459;DHT22;38372;52.902;6.024;2023-12-04T00:14:42;0.60;99.90
52459;DHT22;38372;52.902;6.024;2023-12-04T00:17:08;0.60;99.90
52459;DHT22;38372;52.902;6.024;2023-12-04T00:19:34;0.60;99.90
52459;DHT22;38372;52.902;6.024;2023-12-04T00:21:59;0.60;99.90
52459;DHT22;38372;52.902;6.024;2023-12-04T00:24:25;0.70;99.90
52459;DHT22;38372;52.902;6.024;2023-12-04T00:26:51;0.60;99.90
52459;DHT22;38372;52.902;6.024;2023-12-04T00:29:16;0.60;99.90
52459;DHT22;38372;52.902;6.024;2023-12-04T00:31:42;0.70;99.90
52459;DHT22;38372;52.902;6.024;2023-12-04T00:34:08;0.70;99.90
52459;DHT22;38372;52.902;6.024;2023-12-04T00:36:34;0.70;99.90
52459;DHT22;38372;52.902;6.024;2023-12-04T00:39:00;0.70;99.90
52459;DHT22;38372;52.902;6.024;2023-12-04T00:41:26;0.70;99.90
52459;DHT22;38372;52.902;6.024;2023-12-04T00:44:00;0.70;99.90
52459;DHT22;38372;52.902;6.024;2023-12-04T00:46:27;0.70;99.90
52459;DHT22;38372;52.902;6.024;2023-12-04T00:48:58;0.70;99.90
52459;DHT22;38372;52.902;6.024;2023-12-04T00:51:37;0.70;99.90
52459;DHT22;38372;52.902;6.024;2023-12-04T00:54:04;0.70;99.90
52459;DHT22;38372;52.902;6.024;2023-12-04T00:56:30;0.70;99.90
52459;DHT22;38372;52.902;6.024;2023-12-04T00:58:56;0.70;99.90
52459;DHT22;38372;52.902;6.024;2023-12-04T01:01:29;0.70;99.90
52459;DHT22;38372;52.902;6.024;2023-12-04T01:03:55;0.70;99.90
52459;DHT22;38372;52.902;6.024;2023-12-04T01:06:21;0.70;99.90
52459;DHT22;38372;52.902;6.024;2023-12-04T01:08:50;0.70;99.90
52459;DHT22;38372;52.902;6.024;2023-12-04T01:11:17;0.70;99.90
52459;DHT22;38372;52.902;6.024;2023-12-04T01:13:43;0.70;99.90
52459;DHT22;38372;52.902;6.024;2023-12-04T01:16:09;0.70;99.90
52459;DHT22;38372;52.902;6.024;2023-12-04T01:18:35;0.70;99.90
52459;DHT22;38372;52.902;6.024;2023-12-04T01:21:01;0.80;99.90
52459;DHT22;38372;52.902;6.024;2023-12-04T01:23:28;0.80;99.90
52459;DHT22;38372;52.902;6.024;2023-12-04T01:25:53;0.80;99.90
52459;DHT22;38372;52.902;6.024;2023-12-04T01:28:19;0.80;99.90
52459;DHT22;38372;52.902;6.024;2023-12-04T01:30:45;0.80;99.90
52459;DHT22;38372;52.902;6.024;2023-12-04T01:33:32;0.80;99.90
52459;DHT22;38372;52.902;6.024;2023-12-04T01:35:58;0.80;99.90
52459;DHT22;38372;52.902;6.024;2023-12-04T01:38:24;0.80;99.90
52459;DHT22;38372;52.902;6.024;2023-12-04T01:40:50;0.80;99.90
52459;DHT22;38372;52.902;6.024;2023-12-04T01:43:16;0.80;99.90
52459;DHT22;38372;52.902;6.024;2023-12-04T01:45:42;0.80;99.90
52459;DHT22;38372;52.902;6.024;2023-12-04T01:48:08;0.80;99.90
52459;DHT22;38372;52.902;6.024;2023-12-04T01:50:35;0.80;99.90
52459;DHT22;38372;52.902;6.024;2023-12-04T01:53:02;0.80;99.90
52459;DHT22;38372;52.902;6.024;2023-12-04T01:55:29;0.80;99.90
52459;DHT22;38372;52.902;6.024;2023-12-04T01:57:56;0.80;99.90
52459;DHT22;38372;52.902;6.024;2023-12-04T02:00:22;0.80;99.90
52459;DHT22;38372;52.902;6.024;2023-12-04T02:02:48;0.80;99.90
52459;DHT22;38372;52.902;6.024;2023-12-04T02:05:14;0.80;99.90
52459;DHT22;38372;52.902;6.024;2023-12-04T02:07:41;0.80;99.90
52459;DHT22;38372;52.902;6.024;2023-12-04T02:10:08;0.80;99.90
52459;DHT22;38372;52.902;6.024;2023-12-04T02:12:35;0.70;99.90
52459;DHT22;38372;52.902;6.024;2023-12-04T02:15:01;0.80;99.90
52459;DHT22;38372;52.902;6.024;2023-12-04T02:17:28;0.80;99.90
52459;DHT22;38372;52.902;6.024;2023-12-04T02:19:54;0.80;99.90
52459;DHT22;38372;52.902;6.024;2023-12-04T02:22:20;0.80;99.90
52459;DHT22;38372;52.902;6.024;2023-12-04T02:24:46;0.80;99.90
52459;DHT22;38372;52.902;6.024;2023-12-04T02:27:18;0.80;99.90
52459;DHT22;38372;52.902;6.024;2023-12-04T02:29:59;0.80;99.90
52459;DHT22;38372;52.902;6.024;2023-12-04T02:32:29;0.80;99.90
52459;DHT22;38372;52.902;6.024;2023-12-04T02:34:56;0.80;99.90
52459;DHT22;38372;52.902;6.024;2023-12-04T02:37:23;0.80;99.90
52459;DHT22;38372;52.902;6.024;2023-12-04T02:39:50;0.80;99.90
52459;DHT22;38372;52.902;6.024;2023-12-04T02:42:18;0.80;99.90
52459;DHT22;38372;52.902;6.024;2023-12-04T02:44:44;0.80;99.90
52459;DHT22;38372;52.902;6.024;2023-12-04T02:47:11;0.80;99.90
52459;DHT22;38372;52.902;6.024;2023-12-04T02:49:37;0.80;99.90
52459;DHT22;38372;52.902;6.024;2023-12-04T02:52:03;0.80;99.90
52459;DHT22;38372;52.902;6.024;2023-12-04T02:54:29;0.80;99.90
52459;DHT22;38372;52.902;6.024;2023-12-04T02:56:54;0.80;99.90
52459;DHT22;38372;52.902;6.024;2023-12-04T02:59:20;0.90;99.90
52459;DHT22;38372;52.902;6.024;2023-12-04T03:01:46;0.80;99.90
52459;DHT22;38372;52.902;6.024;2023-12-04T03:04:12;0.90;99.90
52459;DHT22;38372;52.902;6.024;2023-12-04T03:06:38;0.80;99.90
52459;DHT22;38372;52.902;6.024;2023-12-04T03:09:04;0.80;99.90
52459;DHT22;38372;52.902;6.024;2023-12-04T03:11:30;0.80;99.90
52459;DHT22;38372;52.902;6.024;2023-12-04T03:13:59;0.80;99.90
52459;DHT22;38372;52.902;6.024;2023-12-04T03:16:25;0.80;99.90
52459;DHT22;38372;52.902;6.024;2023-12-04T03:18:51;0.80;99.90
52459;DHT22;38372;52.902;6.024;2023-12-04T03:21:16;0.80;99.90
52459;DHT22;38372;52.902;6.024;2023-12-04T03:23:42;0.80;99.90
52459;DHT22;38372;52.902;6.024;2023-12-04T03:26:09;0.80;99.90
52459;DHT22;38372;52.902;6.024;2023-12-04T03:28:34;0.80;99.90
52459;DHT22;38372;52.902;6.024;2023-12-04T03:31:00;0.80;99.90
52459;DHT22;38372;52.902;6.024;2023-12-04T03:33:26;0.90;99.90
52459;DHT22;38372;52.902;6.024;2023-12-04T03:35:52;0.80;99.90
52459;DHT22;38372;52.902;6.024;2023-12-04T03:38:18;0.80;99.90
52459;DHT22;38372;52.902;6.024;2023-12-04T03:40:43;0.80;99.90
52459;DHT22;38372;52.902;6.024;2023-12-04T03:43:09;0.80;99.90
52459;DHT22;38372;52.902;6.024;2023-12-04T03:45:35;0.90;99.90
52459;DHT22;38372;52.902;6.024;2023-12-04T03:48:01;0.80;99.90
52459;DHT22;38372;52.902;6.024;2023-12-04T03:50:26;0.90;99.90
52459;DHT22;38372;52.902;6.024;2023-12-04T03:52:52;0.90;99.90
52459;DHT22;38372;52.902;6.024;2023-12-04T03:55:18;0.90;99.90
52459;DHT22;38372;52.902;6.024;2023-12-04T03:57:45;0.90;99.90
52459;DHT22;38372;52.902;6.024;2023-12-04T04:00:12;0.90;99.90
52459;DHT22;38372;52.902;6.024;2023-12-04T04:02:39;0.90;99.90
52459;DHT22;38372;52.902;6.024;2023-12-04T04:05:06;0.90;99.90
52459;DHT22;38372;52.902;6.024;2023-12-04T04:07:32;0.90;99.90
52459;DHT22;38372;52.902;6.024;2023-12-04T04:09:58;0.90;99.90
52459;DHT22;38372;52.902;6.024;2023-12-04T04:12:23;0.90;99.90
52459;DHT22;38372;52.902;6.024;2023-12-04T04:14:49;0.90;99.90
52459;DHT22;38372;52.902;6.024;2023-12-04T04:17:15;0.90;99.90
52459;DHT22;38372;52.902;6.024;2023-12-04T04:19:41;0.90;99.90
52459;DHT22;38372;52.902;6.024;2023-12-04T04:22:07;0.90;99.90
52459;DHT22;38372;52.902;6.024;2023-12-04T04:24:32;0.90;99.90
52459;DHT22;38372;52.902;6.024;2023-12-04T04:26:58;0.90;99.90
52459;DHT22;38372;52.902;6.024;2023-12-04T04:29:24;0.90;99.90
52459;DHT22;38372;52.902;6.024;2023-12-04T04:31:50;0.90;99.90
52459;DHT22;38372;52.902;6.024;2023-12-04T04:34:15;0.90;99.90
52459;DHT22;38372;52.902;6.024;2023-12-04T04:36:43;0.90;99.90
52459;DHT22;38372;52.902;6.024;2023-12-04T04:39:11;0.90;99.90
52459;DHT22;38372;52.902;6.024;2023-12-04T04:41:37;0.90;99.90
52459;DHT22;38372;52.902;6.024;2023-12-04T04:44:03;0.90;99.90
52459;DHT22;38372;52.902;6.024;2023-12-04T04:46:29;0.90;99.90
52459;DHT22;38372;52.902;6.024;2023-12-04T04:48:54;0.90;99.90
52459;DHT22;38372;52.902;6.024;2023-12-04T04:51:21;0.90;99.90
52459;DHT22;38372;52.902;6.024;2023-12-04T04:53:47;0.90;99.90
52459;DHT22;38372;52.902;6.024;2023-12-04T04:56:14;0.90;99.90
52459;DHT22;38372;52.902;6.024;2023-12-04T04:58:41;0.90;99.90
52459;DHT22;38372;52.902;6.024;2023-12-04T05:01:07;1.00;99.90
52459;DHT22;38372;52.902;6.024;2023-12-04T05:03:33;1.00;99.90
52459;DHT22;38372;52.902;6.024;2023-12-04T05:05:59;1.00;99.90
52459;DHT22;38372;52.902;6.024;2023-12-04T05:08:25;1.00;99.90
52459;DHT22;38372;52.902;6.024;2023-12-04T05:10:51;1.00;99.90
52459;DHT22;38372;52.902;6.024;2023-12-04T05:13:17;1.00;99.90
52459;DHT22;38372;52.902;6.024;2023-12-04T05:15:43;1.00;99.90
52459;DHT22;38372;52.902;6.024;2023-12-04T05:18:09;1.00;99.90
52459;DHT22;38372;52.902;6.024;2023-12-04T05:20:34;1.00;99.90
52459;DHT22;38372;52.902;6.024;2023-12-04T05:23:00;1.00;99.90
52459;DHT22;38372;52.902;6.024;2023-12-04T05:25:26;1.00;99.90
52459;DHT22;38372;52.902;6.024;2023-12-04T05:27:52;1.00;99.90
52459;DHT22;38372;52.902;6.024;2023-12-04T05:30:18;1.00;99.90
52459;DHT22;38372;52.902;6.024;2023-12-04T05:32:44;1.00;99.90
52459;DHT22;38372;52.902;6.024;2023-12-04T05:35:09;1.00;99.90
52459;DHT22;38372;52.902;6.024;2023-12-04T05:37:35;1.00;99.90
52459;DHT22;38372;52.902;6.024;2023-12-04T05:40:01;1.00;99.90
52459;DHT22;38372;52.902;6.024;2023-12-04T05:42:29;1.00;99.90
52459;DHT22;38372;52.902;6.024;2023-12-04T05:44:54;1.00;99.90
52459;DHT22;38372;52.902;6.024;2023-12-04T05:47:21;1.00;99.90
52459;DHT22;38372;52.902;6.024;2023-12-04T05:49:47;1.00;99.90
52459;DHT22;38372;52.902;6.024;2023-12-04T05:52:12;1.00;99.90
52459;DHT22;38372;52.902;6.024;2023-12-04T05:54:38;1.00;99.90
52459;DHT22;38372;52.902;6.024;2023-12-04T05:57:04;1.00;99.90
52459;DHT22;38372;52.902;6.024;2023-12-04T05:59:30;1.00;99.90
52459;DHT22;38372;52.902;6.024;2023-12-04T06:01:56;1.00;99.90
52459;DHT22;38372;52.902;6.024;2023-12-04T06:04:22;1.00;99.90
52459;DHT22;38372;52.902;6.024;2023-12-04T06:06:47;1.00;99.90
52459;DHT22;38372;52.902;6.024;2023-12-04T06:09:13;1.00;99.90
52459;DHT22;38372;52.902;6.024;2023-12-04T06:11:42;1.00;99.90
52459;DHT22;38372;52.902;6.024;2023-12-04T06:14:07;1.00;99.90
52459;DHT22;38372;52.902;6.024;2023-12-04T06:16:33;1.00;99.90
52459;DHT22;38372;52.902;6.024;2023-12-04T06:18:59;1.00;99.90
52459;DHT22;38372;52.902;6.024;2023-12-04T06:21:25;0.90;99.90
52459;DHT22;38372;52.902;6.024;2023-12-04T06:23:51;0.90;99.90
52459;DHT22;38372;52.902;6.024;2023-12-04T06:26:17;0.90;99.90
52459;DHT22;38372;52.902;6.024;2023-12-04T06:28:44;0.90;99.90
52459;DHT22;38372;52.902;6.024;2023-12-04T06:31:10;1.00;99.90
52459;DHT22;38372;52.902;6.024;2023-12-04T06:33:36;0.90;99.90
52459;DHT22;38372;52.902;6.024;2023-12-04T06:36:04;0.90;99.90
52459;DHT22;38372;52.902;6.024;2023-12-04T06:38:32;0.90;99.90
52459;DHT22;38372;52.902;6.024;2023-12-04T06:41:01;0.90;99.90
52459;DHT22;38372;52.902;6.024;2023-12-04T06:43:27;0.90;99.90
52459;DHT22;38372;52.902;6.024;2023-12-04T06:45:54;0.90;99.90
52459;DHT22;38372;52.902;6.024;2023-12-04T06:48:23;1.00;99.90
52459;DHT22;38372;52.902;6.024;2023-12-04T06:50:48;0.90;99.90
52459;DHT22;38372;52.902;6.024;2023-12-04T06:53:14;0.90;99.90
52459;DHT22;38372;52.902;6.024;2023-12-04T06:55:40;0.90;99.90
52459;DHT22;38372;52.902;6.024;2023-12-04T06:58:06;0.90;99.90
52459;DHT22;38372;52.902;6.024;2023-12-04T07:00:32;0.90;99.90
52459;DHT22;38372;52.902;6.024;2023-12-04T07:02:57;0.90;99.90
52459;DHT22;38372;52.902;6.024;2023-12-04T07:05:23;0.90;99.90
52459;DHT22;38372;52.902;6.024;2023-12-04T07:07:49;0.90;99.90
52459;DHT22;38372;52.902;6.024;2023-12-04T07:10:15;1.00;99.90
52459;DHT22;38372;52.902;6.024;2023-12-04T07:12:41;1.00;99.90
52459;DHT22;38372;52.902;6.024;2023-12-04T07:15:08;1.00;99.90
52459;DHT22;38372;52.902;6.024;2023-12-04T07:17:35;1.00;99.90
52459;DHT22;38372;52.902;6.024;2023-12-04T07:20:01;1.00;99.90
52459;DHT22;38372;52.902;6.024;2023-12-04T07:22:27;1.00;99.90
52459;DHT22;38372;52.902;6.024;2023-12-04T07:24:53;1.00;99.90
52459;DHT22;38372;52.902;6.024;2023-12-04T07:27:18;1.00;99.90
52459;DHT22;38372;52.902;6.024;2023-12-04T07:29:44;1.00;99.90
52459;DHT22;38372;52.902;6.024;2023-12-04T07:32:10;1.00;99.90
52459;DHT22;38372;52.902;6.024;2023-12-04T07:34:36;1.00;99.90
52459;DHT22;38372;52.902;6.024;2023-12-04T07:37:02;1.10;99.90
52459;DHT22;38372;52.902;6.024;2023-12-04T07:39:28;1.10;99.90
52459;DHT22;38372;52.902;6.024;2023-12-04T07:41:54;1.10;99.90
52459;DHT22;38372;52.902;6.024;2023-12-04T07:44:20;1.10;99.90
52459;DHT22;38372;52.902;6.024;2023-12-04T07:46:46;1.10;99.90
52459;DHT22;38372;52.902;6.024;2023-12-04T07:49:12;1.10;99.90
52459;DHT22;38372;52.902;6.024;2023-12-04T07:51:38;1.10;99.90
52459;DHT22;38372;52.902;6.024;2023-12-04T07:54:04;1.10;99.90
52459;DHT22;38372;52.902;6.024;2023-12-04T07:56:30;1.10;99.90
52459;DHT22;38372;52.902;6.024;2023-12-04T07:58:55;1.10;99.90
52459;DHT22;38372;52.902;6.024;2023-12-04T08:01:23;1.10;99.90
52459;DHT22;38372;52.902;6.024;2023-12-04T08:03:49;1.10;99.90
52459;DHT22;38372;52.902;6.024;2023-12-04T08:06:15;1.10;99.90
52459;DHT22;38372;52.902;6.024;2023-12-04T08:08:43;1.20;99.90
52459;DHT22;38372;52.902;6.024;2023-12-04T08:11:12;1.10;99.90
52459;DHT22;38372;52.902;6.024;2023-12-04T08:13:39;1.20;99.90
52459;DHT22;38372;52.902;6.024;2023-12-04T08:16:12;1.20;99.90
52459;DHT22;38372;52.902;6.024;2023-12-04T08:18:38;1.20;99.90
52459;DHT22;38372;52.902;6.024;2023-12-04T08:21:04;1.20;99.90
52459;DHT22;38372;52.902;6.024;2023-12-04T08:23:29;1.10;99.90
52459;DHT22;38372;52.902;6.024;2023-12-04T08:25:56;1.20;99.90
52459;DHT22;38372;52.902;6.024;2023-12-04T08:28:22;1.20;99.90
52459;DHT22;38372;52.902;6.024;2023-12-04T08:30:48;1.20;99.90
52459;DHT22;38372;52.902;6.024;2023-12-04T08:33:14;1.20;99.90
52459;DHT22;38372;52.902;6.024;2023-12-04T08:35:40;1.20;99.90
52459;DHT22;38372;52.902;6.024;2023-12-04T08:38:06;1.20;99.90
52459;DHT22;38372;52.902;6.024;2023-12-04T08:40:32;1.20;99.90
52459;DHT22;38372;52.902;6.024;2023-12-04T08:42:58;1.20;99.90
52459;DHT22;38372;52.902;6.024;2023-12-04T08:45:23;1.20;99.90
52459;DHT22;38372;52.902;6.024;2023-12-04T08:47:49;1.30;99.90
52459;DHT22;38372;52.902;6.024;2023-12-04T08:50:16;1.30;99.90
52459;DHT22;38372;52.902;6.024;2023-12-04T08:52:42;1.30;99.90
52459;DHT22;38372;52.902;6.024;2023-12-04T08:55:09;1.30;99.90
52459;DHT22;38372;52.902;6.024;2023-12-04T08:57:35;1.30;99.90
52459;DHT22;38372;52.902;6.024;2023-12-04T09:00:00;1.40;99.90
52459;DHT22;38372;52.902;6.024;2023-12-04T09:02:26;1.40;99.90
52459;DHT22;38372;52.902;6.024;2023-12-04T09:04:52;1.40;99.90
52459;DHT22;38372;52.902;6.024;2023-12-04T09:07:18;1.40;99.90
52459;DHT22;38372;52.902;6.024;2023-12-04T09:09:43;1.50;99.90
52459;DHT22;38372;52.902;6.024;2023-12-04T09:12:10;1.50;99.90
52459;DHT22;38372;52.902;6.024;2023-12-04T09:14:35;1.50;99.90
52459;DHT22;38372;52.902;6.024;2023-12-04T09:17:01;1.50;99.90
52459;DHT22;38372;52.902;6.024;2023-12-04T09:19:29;1.60;99.90
52459;DHT22;38372;52.902;6.024;2023-12-04T09:21:55;1.60;99.90
52459;DHT22;38372;52.902;6.024;2023-12-04T09:24:22;1.60;99.90
52459;DHT22;38372;52.902;6.024;2023-12-04T09:26:49;1.70;99.90
52459;DHT22;38372;52.902;6.024;2023-12-04T09:29:15;1.70;99.90
52459;DHT22;38372;52.902;6.024;2023-12-04T09:31:42;1.70;99.90
52459;DHT22;38372;52.902;6.024;2023-12-04T09:34:08;1.80;99.90
52459;DHT22;38372;52.902;6.024;2023-12-04T09:36:35;1.80;99.90
52459;DHT22;38372;52.902;6.024;2023-12-04T09:39:03;1.90;99.90
52459;DHT22;38372;52.902;6.024;2023-12-04T09:41:30;1.90;99.90
52459;DHT22;38372;52.902;6.024;2023-12-04T09:44:29;1.90;99.90
52459;DHT22;38372;52.902;6.024;2023-12-04T09:46:57;2.00;99.90
52459;DHT22;38372;52.902;6.024;2023-12-04T09:49:23;2.00;99.90
52459;DHT22;38372;52.902;6.024;2023-12-04T09:51:50;2.00;99.90
52459;DHT22;38372;52.902;6.024;2023-12-04T09:54:17;2.00;99.90
52459;DHT22;38372;52.902;6.024;2023-12-04T09:56:45;2.10;99.90
52459;DHT22;38372;52.902;6.024;2023-12-04T09:59:13;2.10;99.90
52459;DHT22;38372;52.902;6.024;2023-12-04T10:01:41;2.10;99.90
52459;DHT22;38372;52.902;6.024;2023-12-04T10:04:08;2.10;99.90
52459;DHT22;38372;52.902;6.024;2023-12-04T10:06:37;2.10;99.90
52459;DHT22;38372;52.902;6.024;2023-12-04T10:09:03;2.10;99.90
52459;DHT22;38372;52.902;6.024;2023-12-04T10:11:31;2.10;99.90
52459;DHT22;38372;52.902;6.024;2023-12-04T10:13:57;2.10;99.90
52459;DHT22;38372;52.902;6.024;2023-12-04T10:16:49;2.10;99.90
52459;DHT22;38372;52.902;6.024;2023-12-04T10:21:50;2.10;99.90
52459;DHT22;38372;52.902;6.024;2023-12-04T10:24:28;2.20;99.90
52459;DHT22;38372;52.902;6.024;2023-12-04T10:26:54;2.20;99.90
52459;DHT22;38372;52.902;6.024;2023-12-04T10:29:20;2.30;99.90
52459;DHT22;38372;52.902;6.024;2023-12-04T10:32:11;2.30;99.90
52459;DHT22;38372;52.902;6.024;2023-12-04T10:39:26;2.70;99.90
52459;DHT22;38372;52.902;6.024;2023-12-04T10:46:07;2.80;99.90
52459;DHT22;38372;52.902;6.024;2023-12-04T10:48:33;2.80;99.90
52459;DHT22;38372;52.902;6.024;2023-12-04T10:50:59;3.00;99.90
52459;DHT22;38372;52.902;6.024;2023-12-04T10:53:25;3.20;99.90
52459;DHT22;38372;52.902;6.024;2023-12-04T10:55:53;3.40;99.90
52459;DHT22;38372;52.902;6.024;2023-12-04T10:58:25;3.40;99.90
52459;DHT22;38372;52.902;6.024;2023-12-04T11:00:53;3.30;99.90
52459;DHT22;38372;52.902;6.024;2023-12-04T11:03:36;3.30;99.90
52459;DHT22;38372;52.902;6.024;2023-12-04T11:06:02;3.30;99.90
52459;DHT22;38372;52.902;6.024;2023-12-04T11:08:33;3.20;99.90
52459;DHT22;38372;52.902;6.024;2023-12-04T11:11:05;3.20;99.90
52459;DHT22;38372;52.902;6.024;2023-12-04T11:13:47;3.10;99.90
52459;DHT22;38372;52.902;6.024;2023-12-04T11:21:34;3.00;99.90
52459;DHT22;38372;52.902;6.024;2023-12-04T11:24:01;2.90;99.90
52459;DHT22;38372;52.902;6.024;2023-12-04T11:26:28;2.90;99.90
52459;DHT22;38372;52.902;6.024;2023-12-04T11:28:54;2.90;99.90
52459;DHT22;38372;52.902;6.024;2023-12-04T11:31:20;2.80;99.90
52459;DHT22;38372;52.902;6.024;2023-12-04T11:33:46;2.80;99.90
52459;DHT22;38372;52.902;6.024;2023-12-04T11:36:13;2.70;99.90
52459;DHT22;38372;52.902;6.024;2023-12-04T11:38:46;2.70;99.90
52459;DHT22;38372;52.902;6.024;2023-12-04T11:41:19;2.60;99.90
52459;DHT22;38372;52.902;6.024;2023-12-04T11:43:46;2.60;99.90
52459;DHT22;38372;52.902;6.024;2023-12-04T11:46:13;2.60;99.90
52459;DHT22;38372;52.902;6.024;2023-12-04T11:48:47;2.60;99.90
52459;DHT22;38372;52.902;6.024;2023-12-04T11:53:59;2.50;99.90
52459;DHT22;38372;52.902;6.024;2023-12-04T11:56:25;2.50;99.90
52459;DHT22;38372;52.902;6.024;2023-12-04T11:58:51;2.50;99.90
52459;DHT22;38372;52.902;6.024;2023-12-04T12:01:28;2.50;99.90
52459;DHT22;38372;52.902;6.024;2023-12-04T12:04:22;2.50;99.90
52459;DHT22;38372;52.902;6.024;2023-12-04T12:07:06;2.50;99.90
52459;DHT22;38372;52.902;6.024;2023-12-04T12:09:35;2.50;99.90
52459;DHT22;38372;52.902;6.024;2023-12-04T12:12:01;2.50;99.90
52459;DHT22;38372;52.902;6.024;2023-12-04T12:14:36;2.50;99.90
52459;DHT22;38372;52.902;6.024;2023-12-04T12:17:02;2.50;99.90
52459;DHT22;38372;52.902;6.024;2023-12-04T12:22:40;2.60;99.90
52459;DHT22;38372;52.902;6.024;2023-12-04T12:25:10;2.60;99.90
52459;DHT22;38372;52.902;6.024;2023-12-04T12:27:36;2.60;99.90
52459;DHT22;38372;52.902;6.024;2023-12-04T12:30:04;2.60;99.90
52459;DHT22;38372;52.902;6.024;2023-12-04T12:32:32;2.70;99.90
52459;DHT22;38372;52.902;6.024;2023-12-04T12:34:58;2.60;99.90
52459;DHT22;38372;52.902;6.024;2023-12-04T12:37:24;2.70;99.90
52459;DHT22;38372;52.902;6.024;2023-12-04T12:39:51;2.60;99.90
52459;DHT22;38372;52.902;6.024;2023-12-04T12:42:25;2.60;99.90
52459;DHT22;38372;52.902;6.024;2023-12-04T12:44:52;2.60;99.90
52459;DHT22;38372;52.902;6.024;2023-12-04T12:47:18;2.60;99.90
52459;DHT22;38372;52.902;6.024;2023-12-04T12:49:45;2.60;99.90
52459;DHT22;38372;52.902;6.024;2023-12-04T12:52:11;2.60;99.90
52459;DHT22;38372;52.902;6.024;2023-12-04T12:54:41;2.60;99.90
52459;DHT22;38372;52.902;6.024;2023-12-04T12:57:07;2.50;99.90
52459;DHT22;38372;52.902;6.024;2023-12-04T12:59:34;2.60;99.90
52459;DHT22;38372;52.902;6.024;2023-12-04T13:02:00;2.60;99.90
52459;DHT22;38372;52.902;6.024;2023-12-04T13:07:02;2.60;99.90
52459;DHT22;38372;52.902;6.024;2023-12-04T13:09:33;2.60;99.90
52459;DHT22;38372;52.902;6.024;2023-12-04T13:12:02;2.60;99.90
52459;DHT22;38372;52.902;6.024;2023-12-04T13:14:28;2.60;99.90
52459;DHT22;38372;52.902;6.024;2023-12-04T13:16:54;2.60;99.90
52459;DHT22;38372;52.902;6.024;2023-12-04T13:19:22;2.60;99.90
52459;DHT22;38372;52.902;6.024;2023-12-04T13:21:49;2.60;99.90
52459;DHT22;38372;52.902;6.024;2023-12-04T13:24:17;2.60;99.90
52459;DHT22;38372;52.902;6.024;2023-12-04T13:26:46;2.60;99.90
52459;DHT22;38372;52.902;6.024;2023-12-04T13:29:13;2.50;99.90
52459;DHT22;38372;52.902;6.024;2023-12-04T13:31:44;2.50;99.90
52459;DHT22;38372;52.902;6.024;2023-12-04T13:34:16;2.50;99.90
52459;DHT22;38372;52.902;6.024;2023-12-04T13:36:45;2.50;99.90
52459;DHT22;38372;52.902;6.024;2023-12-04T13:39:11;2.40;99.90
52459;DHT22;38372;52.902;6.024;2023-12-04T13:41:44;2.50;99.90
52459;DHT22;38372;52.902;6.024;2023-12-04T13:44:29;2.40;99.90
52459;DHT22;38372;52.902;6.024;2023-12-04T13:46:58;2.40;99.90
52459;DHT22;38372;52.902;6.024;2023-12-04T13:49:24;2.40;99.90
52459;DHT22;38372;52.902;6.024;2023-12-04T13:51:50;2.40;99.90
52459;DHT22;38372;52.902;6.024;2023-12-04T13:54:17;2.40;99.90
52459;DHT22;38372;52.902;6.024;2023-12-04T13:56:48;2.40;99.90
52459;DHT22;38372;52.902;6.024;2023-12-04T13:59:43;2.40;99.90
52459;DHT22;38372;52.902;6.024;2023-12-04T14:02:09;2.40;99.90
52459;DHT22;38372;52.902;6.024;2023-12-04T14:04:37;2.40;99.90
52459;DHT22;38372;52.902;6.024;2023-12-04T14:07:04;2.40;99.90
52459;DHT22;38372;52.902;6.024;2023-12-04T14:09:33;2.40;99.90
52459;DHT22;38372;52.902;6.024;2023-12-04T14:12:00;2.40;99.90
52459;DHT22;38372;52.902;6.024;2023-12-04T14:14:26;2.40;99.90
52459;DHT22;38372;52.902;6.024;2023-12-04T14:16:52;2.50;99.90
52459;DHT22;38372;52.902;6.024;2023-12-04T14:19:19;2.50;99.90
52459;DHT22;38372;52.902;6.024;2023-12-04T14:21:47;2.50;99.90
52459;DHT22;38372;52.902;6.024;2023-12-04T14:24:16;2.50;99.90
52459;DHT22;38372;52.902;6.024;2023-12-04T14:26:42;2.50;99.90
52459;DHT22;38372;52.902;6.024;2023-12-04T14:29:08;2.50;99.90
52459;DHT22;38372;52.902;6.024;2023-12-04T14:31:35;2.50;99.90
52459;DHT22;38372;52.902;6.024;2023-12-04T14:34:00;2.50;99.90
52459;DHT22;38372;52.902;6.024;2023-12-04T14:36:28;2.50;99.90
52459;DHT22;38372;52.902;6.024;2023-12-04T14:38:57;2.50;99.90
52459;DHT22;38372;52.902;6.024;2023-12-04T14:41:23;2.50;99.90
52459;DHT22;38372;52.902;6.024;2023-12-04T14:43:49;2.40;99.90
52459;DHT22;38372;52.902;6.024;2023-12-04T14:46:15;2.40;99.90
52459;DHT22;38372;52.902;6.024;2023-12-04T14:48:42;2.40;99.90
52459;DHT22;38372;52.902;6.024;2023-12-04T14:51:09;2.30;99.90
52459;DHT22;38372;52.902;6.024;2023-12-04T14:53:39;2.30;99.90
52459;DHT22;38372;52.902;6.024;2023-12-04T14:56:33;2.30;99.90
52459;DHT22;38372;52.902;6.024;2023-12-04T14:59:02;2.30;99.90
52459;DHT22;38372;52.902;6.024;2023-12-04T15:01:30;2.20;99.90
52459;DHT22;38372;52.902;6.024;2023-12-04T15:04:15;2.20;99.90
52459;DHT22;38372;52.902;6.024;2023-12-04T15:06:59;2.10;99.90
52459;DHT22;38372;52.902;6.024;2023-12-04T15:09:36;2.10;99.90
52459;DHT22;38372;52.902;6.024;2023-12-04T15:12:20;2.00;99.90
52459;DHT22;38372;52.902;6.024;2023-12-04T15:15:07;2.00;99.90
52459;DHT22;38372;52.902;6.024;2023-12-04T15:17:51;1.90;99.90
52459;DHT22;38372;52.902;6.024;2023-12-04T15:20:21;1.90;99.90
52459;DHT22;38372;52.902;6.024;2023-12-04T15:22:52;1.90;99.90
52459;DHT22;38372;52.902;6.024;2023-12-04T15:25:18;1.80;99.90
52459;DHT22;38372;52.902;6.024;2023-12-04T15:27:46;1.70;99.90
52459;DHT22;38372;52.902;6.024;2023-12-04T15:30:12;1.70;99.90
52459;DHT22;38372;52.902;6.024;2023-12-04T15:32:39;1.70;99.90
52459;DHT22;38372;52.902;6.024;2023-12-04T15:35:06;1.60;99.90
52459;DHT22;38372;52.902;6.024;2023-12-04T15:37:32;1.60;99.90
52459;DHT22;38372;52.902;6.024;2023-12-04T15:39:59;1.60;99.90
52459;DHT22;38372;52.902;6.024;2023-12-04T15:42:25;1.60;99.90
52459;DHT22;38372;52.902;6.024;2023-12-04T15:44:51;1.60;99.90
52459;DHT22;38372;52.902;6.024;2023-12-04T15:47:16;1.60;99.90
52459;DHT22;38372;52.902;6.024;2023-12-04T15:49:47;1.60;99.90
52459;DHT22;38372;52.902;6.024;2023-12-04T15:52:13;1.60;99.90
52459;DHT22;38372;52.902;6.024;2023-12-04T15:54:39;1.60;99.90
52459;DHT22;38372;52.902;6.024;2023-12-04T15:57:05;1.60;99.90
52459;DHT22;38372;52.902;6.024;2023-12-04T15:59:31;1.60;99.90
52459;DHT22;38372;52.902;6.024;2023-12-04T16:01:57;1.60;99.90
52459;DHT22;38372;52.902;6.024;2023-12-04T16:04:23;1.60;99.90
52459;DHT22;38372;52.902;6.024;2023-12-04T16:06:48;1.60;99.90
52459;DHT22;38372;52.902;6.024;2023-12-04T16:09:15;1.60;99.90
52459;DHT22;38372;52.902;6.024;2023-12-04T16:11:41;1.60;99.90